RJSC(METAR)
02/19 09:00
METAR RJSC 190000Z VRB02KT CAVOK 01/M01 Q1025 RMK A3028=
戻る
トップページへ戻る
IMOC Co,.Ltd.